createdAt,value
2018-06-04T00:00:40.165Z,87.15
2018-06-04T00:01:49.035Z,86.48
2018-06-04T00:02:57.893Z,86.96
2018-06-04T00:04:07.033Z,86.68
2018-06-04T00:05:16.180Z,86.96
2018-06-04T00:06:25.319Z,86.38
2018-06-04T00:07:34.182Z,85.91
2018-06-04T00:08:43.044Z,86.48
2018-06-04T00:09:51.907Z,86.96
2018-06-04T00:11:00.919Z,87.15
2018-06-04T00:12:12.824Z,86.29
2018-06-04T00:13:21.964Z,86.96
2018-06-04T00:14:31.106Z,86.68
2018-06-04T00:15:39.973Z,86.15
2018-06-04T00:16:48.835Z,86.29
2018-06-04T00:17:57.699Z,85.71
2018-06-04T00:19:06.563Z,86.58
2018-06-04T00:20:15.425Z,86.25
2018-06-04T00:21:24.288Z,85.67
2018-06-04T00:22:33.149Z,85.91
2018-06-04T00:23:42.013Z,85.42
2018-06-04T00:24:50.870Z,85.81
2018-06-04T00:25:59.733Z,85.62
2018-06-04T00:27:08.595Z,85.71
2018-06-04T00:28:17.458Z,85.81
2018-06-04T00:29:26.605Z,85.48
2018-06-04T00:30:35.471Z,85.52
2018-06-04T00:31:44.332Z,85.58
2018-06-04T00:32:53.197Z,85.86
2018-06-04T00:34:02.209Z,85.77
2018-06-04T00:35:11.073Z,85.58
2018-06-04T00:36:19.931Z,86.15
2018-06-04T00:37:29.072Z,85.86
2018-06-04T00:38:37.936Z,85.58
2018-06-04T00:39:46.848Z,86.15
2018-06-04T00:40:55.717Z,86.05
2018-06-04T00:42:04.578Z,86.05
2018-06-04T00:43:13.718Z,85.67
2018-06-04T00:44:22.581Z,85.77
2018-06-04T00:45:31.993Z,85.58
2018-06-04T00:46:40.854Z,85.58
2018-06-04T00:47:49.992Z,85.38
2018-06-04T00:48:58.855Z,85.48
2018-06-04T00:50:07.717Z,86.05
2018-06-04T00:51:16.580Z,85.19
2018-06-04T00:52:25.444Z,85.67
2018-06-04T00:53:34.308Z,85.58
2018-06-04T00:54:43.168Z,85.48
2018-06-04T00:55:52.307Z,85.58
2018-06-04T00:57:01.321Z,85
2018-06-04T00:58:10.739Z,85.86
2018-06-04T00:59:19.883Z,85.77
2018-06-04T01:00:28.749Z,85.19
2018-06-04T01:01:37.611Z,85.48
2018-06-04T01:02:46.524Z,85.48
2018-06-04T01:03:55.389Z,85.19
2018-06-04T01:05:04.814Z,85.28
2018-06-04T01:06:13.957Z,85.48
2018-06-04T01:07:23.096Z,85.1
2018-06-04T01:08:32.057Z,85.19
2018-06-04T01:09:40.919Z,85.19
2018-06-04T01:10:49.779Z,85.28
2018-06-04T01:11:58.642Z,85.38
2018-06-04T01:13:07.505Z,85.38
2018-06-04T01:14:16.368Z,85.38
2018-06-04T01:15:25.232Z,85
2018-06-04T01:16:34.094Z,85.15
2018-06-04T01:17:42.953Z,85
2018-06-04T01:18:51.818Z,84.71
2018-06-04T01:20:00.831Z,84.86
2018-06-04T01:21:09.688Z,84.91
2018-06-04T01:22:18.546Z,84.77
2018-06-04T01:23:27.409Z,84.48
2018-06-04T01:24:36.275Z,84.77
2018-06-04T01:25:45.589Z,84.58
2018-06-04T01:26:54.450Z,84.28
2018-06-04T01:28:03.313Z,84.28
2018-06-04T01:29:12.176Z,84.48
2018-06-04T01:30:21.039Z,84.28
2018-06-04T01:31:30.248Z,84.48
2018-06-04T01:32:39.111Z,84.48
2018-06-04T01:33:47.975Z,84.09
2018-06-04T01:34:56.838Z,84.19
2018-06-04T01:36:05.699Z,84.38
2018-06-04T01:37:14.844Z,83.91
2018-06-04T01:38:23.706Z,84
2018-06-04T01:39:32.570Z,83.52
2018-06-04T01:40:41.707Z,83.71
2018-06-04T01:41:50.570Z,83.52
2018-06-04T01:42:59.761Z,83.23
2018-06-04T01:44:08.623Z,83.33
2018-06-04T01:45:17.489Z,83.23
2018-06-04T01:46:26.350Z,82.65
2018-06-04T01:47:35.213Z,82.75
2018-06-04T01:48:44.451Z,83.14
2018-06-04T01:49:53.312Z,82.75
2018-06-04T01:51:02.176Z,83.14
2018-06-04T01:52:11.042Z,83.14
2018-06-04T01:53:19.902Z,83.14
2018-06-04T01:54:28.916Z,82.56
2018-06-04T01:55:37.777Z,82.46
2018-06-04T01:56:46.641Z,83.14
2018-06-04T01:57:55.504Z,83.04
2018-06-04T01:59:04.642Z,83.04
2018-06-04T02:00:13.853Z,82.37
2018-06-04T02:01:22.721Z,82.85
2018-06-04T02:02:31.576Z,82.75
2018-06-04T02:03:40.438Z,82.94
2018-06-04T02:04:49.593Z,83.04
2018-06-04T02:05:58.441Z,83.23
2018-06-04T02:07:07.303Z,82.94
2018-06-04T02:08:16.444Z,82.46
2018-06-04T02:09:25.344Z,82.37
2018-06-04T02:10:34.170Z,82.18
2018-06-04T02:11:43.033Z,82.37
2018-06-04T02:12:51.892Z,83.04
2018-06-04T02:14:00.754Z,82.56
2018-06-04T02:15:09.892Z,82.85
2018-06-04T02:16:18.804Z,82.56
2018-06-04T02:17:28.394Z,81.98
2018-06-04T02:18:37.531Z,82.27
2018-06-04T02:19:46.396Z,81.79
2018-06-04T02:20:55.261Z,82.56
2018-06-04T02:22:04.122Z,82.37
2018-06-04T02:23:13.084Z,82.18
2018-06-04T02:24:22.222Z,83.04
2018-06-04T02:25:31.086Z,82.65
2018-06-04T02:26:39.946Z,82.56
2018-06-04T02:27:48.807Z,82.65
2018-06-04T02:28:57.803Z,82.56
2018-06-04T02:30:06.933Z,82.27
2018-06-04T02:31:15.790Z,82.27
2018-06-04T02:32:24.932Z,82.65
2018-06-04T02:33:33.796Z,82.21
2018-06-04T02:34:43.112Z,82.18
2018-06-04T02:35:52.257Z,82.27
2018-06-04T02:37:01.399Z,82.18
2018-06-04T02:38:11.102Z,82.27
2018-06-04T02:39:20.252Z,82.08
2018-06-04T02:40:29.721Z,82.27
2018-06-04T02:41:38.863Z,81.7
2018-06-04T02:42:48.005Z,82.08
2018-06-04T02:43:57.145Z,82.75
2018-06-04T02:45:06.571Z,82.18
2018-06-04T02:46:16.070Z,82.46
2018-06-04T02:47:24.931Z,82.18
2018-06-04T02:48:34.342Z,82.27
2018-06-04T02:49:43.486Z,82.18
2018-06-04T02:50:52.349Z,81.98
2018-06-04T02:52:01.642Z,82.08
2018-06-04T02:53:10.781Z,82.08
2018-06-04T02:54:19.935Z,82.08
2018-06-04T02:55:29.083Z,82.08
2018-06-04T02:56:37.946Z,81.98
2018-06-04T02:57:47.563Z,82.18
2018-06-04T02:58:56.427Z,82.18
2018-06-04T03:00:05.572Z,81.6
2018-06-04T03:01:14.444Z,81.6
2018-06-04T03:02:23.297Z,81.41
2018-06-04T03:03:32.809Z,81.31
2018-06-04T03:04:41.946Z,81.41
2018-06-04T03:05:50.805Z,81.41
2018-06-04T03:06:59.677Z,81.41
2018-06-04T03:08:09.095Z,81.51
2018-06-04T03:09:18.308Z,81.22
2018-06-04T03:10:27.175Z,81.41
2018-06-04T03:11:36.316Z,81.41
2018-06-04T03:12:45.457Z,81.31
2018-06-04T03:13:54.322Z,80.74
2018-06-04T03:15:04.178Z,80.64
2018-06-04T03:16:13.334Z,80.74
2018-06-04T03:17:22.474Z,81.41
2018-06-04T03:18:31.617Z,80.74
2018-06-04T03:19:40.487Z,80.64
2018-06-04T03:20:49.499Z,80.93
2018-06-04T03:21:58.920Z,80.83
2018-06-04T03:23:08.062Z,80.64
2018-06-04T03:24:16.978Z,80.83
2018-06-04T03:25:26.119Z,81.64
2018-06-04T03:26:35.133Z,80.87
2018-06-04T03:27:43.998Z,80.83
2018-06-04T03:28:52.860Z,80.64
2018-06-04T03:30:01.726Z,81.07
2018-06-04T03:31:10.874Z,80.64
2018-06-04T03:32:20.376Z,80.87
2018-06-04T03:33:29.239Z,81.35
2018-06-04T03:34:38.154Z,80.68
2018-06-04T03:35:47.293Z,80.87
2018-06-04T03:36:56.159Z,80.78
2018-06-04T03:38:05.198Z,80.68
2018-06-04T03:39:14.027Z,80.68
2018-06-04T03:40:22.888Z,80.58
2018-06-04T03:41:32.025Z,81.45
2018-06-04T03:42:40.890Z,81.45
2018-06-04T03:43:50.076Z,80.78
2018-06-04T03:44:58.948Z,80.97
2018-06-04T03:46:08.373Z,80.78
2018-06-04T03:47:17.237Z,80.78
2018-06-04T03:48:26.098Z,80.78
2018-06-04T03:49:35.586Z,81.54
2018-06-04T03:50:44.449Z,80.87
2018-06-04T03:51:53.590Z,80.97
2018-06-04T03:53:02.740Z,80.68
2018-06-04T03:54:11.602Z,80.97
2018-06-04T03:55:20.465Z,80.97
2018-06-04T03:56:29.332Z,81.35
2018-06-04T03:57:38.195Z,80.68
2018-06-04T03:58:47.061Z,80.78
2018-06-04T03:59:56.203Z,80.97
2018-06-04T04:01:05.216Z,80.87
2018-06-04T04:02:14.352Z,80.87
2018-06-04T04:03:23.498Z,80.78
2018-06-04T04:04:32.360Z,80.78
2018-06-04T04:05:41.223Z,80.58
2018-06-04T04:06:50.135Z,80.87
2018-06-04T04:07:59.002Z,80.97
2018-06-04T04:09:08.140Z,80.97
2018-06-04T04:10:17.004Z,80.68
2018-06-04T04:11:25.865Z,80.87
2018-06-04T04:12:35.060Z,80.97
2018-06-04T04:13:43.923Z,80.97
2018-06-04T04:14:52.789Z,80.78
2018-06-04T04:16:01.648Z,80.68
2018-06-04T04:17:10.509Z,81.64
2018-06-04T04:18:19.530Z,80.78
2018-06-04T04:19:28.398Z,80.87
2018-06-04T04:20:37.254Z,80.97
2018-06-04T04:21:46.120Z,80.87
2018-06-04T04:22:54.985Z,80.78
2018-06-04T04:24:04.005Z,80.78
2018-06-04T04:25:12.868Z,80.97
2018-06-04T04:26:21.732Z,80.78
2018-06-04T04:27:30.875Z,80.68
2018-06-04T04:28:39.737Z,80.78
2018-06-04T04:29:48.950Z,80.82
2018-06-04T04:30:57.813Z,80.68
2018-06-04T04:32:06.674Z,81.01
2018-06-04T04:33:15.538Z,81.3
2018-06-04T04:34:24.681Z,80.91
2018-06-04T04:35:33.792Z,80.91
2018-06-04T04:36:42.657Z,80.58
2018-06-04T04:37:51.814Z,80.78
2018-06-04T04:39:01.288Z,80.82
2018-06-04T04:40:10.151Z,81.2
2018-06-04T04:41:19.213Z,80.87
2018-06-04T04:42:28.076Z,80.97
2018-06-04T04:43:36.939Z,81.64
2018-06-04T04:44:45.803Z,81.54
2018-06-04T04:45:54.663Z,81.16
2018-06-04T04:47:03.526Z,80.43
2018-06-04T04:48:12.388Z,81.01
2018-06-04T04:49:21.252Z,81.01
2018-06-04T04:50:30.115Z,81.01
2018-06-04T04:51:38.979Z,81.2
2018-06-04T04:52:47.847Z,81.4
2018-06-04T04:53:56.708Z,80.82
2018-06-04T04:55:05.570Z,81.01
2018-06-04T04:56:14.712Z,81.4
2018-06-04T04:57:23.577Z,81.2
2018-06-04T04:58:32.439Z,81.01
2018-06-04T04:59:41.402Z,81.4
2018-06-04T05:00:50.169Z,81.4
2018-06-04T05:01:59.032Z,81.1
2018-06-04T05:03:08.052Z,81.1
2018-06-04T05:04:16.915Z,81.1
2018-06-04T05:05:25.776Z,81.01
2018-06-04T05:06:34.639Z,81.3
2018-06-04T05:07:44.056Z,81.2
2018-06-04T05:08:53.199Z,80.91
2018-06-04T05:10:02.061Z,80.82
2018-06-04T05:11:10.926Z,81.01
2018-06-04T05:12:20.347Z,80.91
2018-06-04T05:13:29.487Z,80.82
2018-06-04T05:14:38.349Z,81.1
2018-06-04T05:15:47.216Z,81.01
2018-06-04T05:16:56.077Z,81.68
2018-06-04T05:18:04.939Z,81.68
2018-06-04T05:19:14.085Z,81.68
2018-06-04T05:20:22.952Z,81.1
2018-06-04T05:21:31.810Z,81.01
2018-06-04T05:22:40.949Z,81.49
2018-06-04T05:23:49.911Z,81.01
2018-06-04T05:24:58.793Z,80.82
2018-06-04T05:26:07.657Z,80.82
2018-06-04T05:27:16.523Z,81.2
2018-06-04T05:28:25.664Z,80.63
2018-06-04T05:29:34.622Z,80.82
2018-06-04T05:30:43.486Z,81.2
2018-06-04T05:31:52.985Z,81.4
2018-06-04T05:33:02.525Z,80.63
2018-06-04T05:34:11.484Z,80.91
2018-06-04T05:35:20.703Z,81.4
2018-06-04T05:36:29.565Z,80.91
2018-06-04T05:37:38.429Z,81.59
2018-06-04T05:38:47.568Z,81.59
2018-06-04T05:39:56.430Z,81.2
2018-06-04T05:41:05.445Z,80.82
2018-06-04T05:42:14.628Z,81.4
2018-06-04T05:43:23.786Z,80.91
2018-06-04T05:44:32.652Z,81.3
2018-06-04T05:45:41.795Z,81.4
2018-06-04T05:46:50.808Z,81.4
2018-06-04T05:47:59.674Z,81.49
2018-06-04T05:49:08.815Z,81.3
2018-06-04T05:50:17.967Z,81.49
2018-06-04T05:51:27.111Z,81.49
2018-06-04T05:52:36.023Z,81.4
2018-06-04T05:53:45.164Z,81.4
2018-06-04T05:54:54.027Z,81.2
2018-06-04T05:56:02.889Z,81.4
2018-06-04T05:57:11.755Z,81.68
2018-06-04T05:58:20.819Z,81.01
2018-06-04T05:59:29.682Z,80.78
2018-06-04T06:00:38.549Z,80.73
2018-06-04T06:01:47.440Z,81.01
2018-06-04T06:02:56.592Z,80.63
2018-06-04T06:04:05.919Z,80.82
2018-06-04T06:05:15.067Z,81.3
2018-06-04T06:06:23.930Z,80.82
2018-06-04T06:07:32.797Z,80.63
2018-06-04T06:08:41.938Z,80.73
2018-06-04T06:09:51.359Z,80.73
2018-06-04T06:11:00.340Z,81.49
2018-06-04T06:12:09.200Z,80.82
2018-06-04T06:13:18.062Z,80.76
2018-06-04T06:14:26.956Z,80.86
2018-06-04T06:15:36.186Z,80.63
2018-06-04T06:16:45.057Z,80.73
2018-06-04T06:17:53.917Z,81.01
2018-06-04T06:19:02.790Z,81.59
2018-06-04T06:20:11.652Z,81.01
2018-06-04T06:21:20.615Z,80.91
2018-06-04T06:22:29.478Z,81.4
2018-06-04T06:23:38.345Z,81.01
2018-06-04T06:24:47.202Z,81.3
2018-06-04T06:25:56.353Z,81.3
2018-06-04T06:27:05.593Z,81.49
2018-06-04T06:28:14.454Z,80.76
2018-06-04T06:29:23.323Z,80.76
2018-06-04T06:30:32.463Z,80.66
2018-06-04T06:31:41.336Z,80.76
2018-06-04T06:32:50.505Z,80.86
2018-06-04T06:33:59.370Z,81.49
2018-06-04T06:35:08.232Z,81.49
2018-06-04T06:36:17.108Z,80.82
2018-06-04T06:37:25.971Z,80.63
2018-06-04T06:38:34.840Z,81.4
2018-06-04T06:39:43.697Z,80.91
2018-06-04T06:40:52.563Z,80.91
2018-06-04T06:42:01.427Z,80.73
2018-06-04T06:43:11.080Z,81.2
2018-06-04T06:44:21.098Z,81.24
2018-06-04T06:45:29.965Z,81.3
2018-06-04T06:46:38.829Z,81.4
2018-06-04T06:47:47.975Z,81.1
2018-06-04T06:48:56.839Z,81.3
2018-06-04T06:50:05.815Z,81.3
2018-06-04T06:51:14.668Z,81.3
2018-06-04T06:52:23.530Z,81.68
2018-06-04T06:53:32.394Z,81.59
2018-06-04T06:54:41.257Z,81.4
2018-06-04T06:55:50.323Z,81.59
2018-06-04T06:56:59.192Z,80.91
2018-06-04T06:58:08.336Z,81.01
2018-06-04T06:59:17.198Z,80.91
2018-06-04T07:00:26.338Z,81.01
2018-06-04T07:01:35.630Z,80.96
2018-06-04T07:02:44.786Z,80.91
2018-06-04T07:03:53.649Z,81.4
2018-06-04T07:05:02.513Z,81.78
2018-06-04T07:06:11.371Z,81.3
2018-06-04T07:07:20.285Z,81.59
2018-06-04T07:08:29.146Z,81.1
2018-06-04T07:09:38.009Z,81.4
2018-06-04T07:10:46.876Z,81.15
2018-06-04T07:11:55.731Z,81.1
2018-06-04T07:13:04.746Z,81.01
2018-06-04T07:14:13.912Z,81.49
2018-06-04T07:15:23.493Z,81.4
2018-06-04T07:16:32.356Z,81.87
2018-06-04T07:17:41.500Z,81.78
2018-06-04T07:18:50.712Z,81.68
2018-06-04T07:19:59.576Z,81.78
2018-06-04T07:21:08.442Z,81.59
2018-06-04T07:22:17.306Z,81.1
2018-06-04T07:23:26.169Z,81.24
2018-06-04T07:24:35.385Z,81.2
2018-06-04T07:25:44.248Z,81.72
2018-06-04T07:26:53.112Z,81.78
2018-06-04T07:28:01.975Z,81.3
2018-06-04T07:29:10.839Z,81.59
2018-06-04T07:30:19.803Z,81.82
2018-06-04T07:31:28.671Z,81.68
2018-06-04T07:32:37.810Z,81.78
2018-06-04T07:33:46.674Z,81.78
2018-06-04T07:34:55.558Z,82.16
2018-06-04T07:36:04.785Z,81.49
2018-06-04T07:37:13.647Z,81.68
2018-06-04T07:38:22.514Z,81.87
2018-06-04T07:39:31.373Z,81.97
2018-06-04T07:40:40.514Z,81.53
2018-06-04T07:41:49.378Z,81.53
2018-06-04T07:42:58.552Z,82.01
2018-06-04T07:44:07.420Z,82.01
2018-06-04T07:45:16.281Z,81.92
2018-06-04T07:46:25.144Z,81.82
2018-06-04T07:47:34.110Z,81.92
2018-06-04T07:48:43.262Z,81.92
2018-06-04T07:49:52.167Z,82.01
2018-06-04T07:51:01.319Z,82.3
2018-06-04T07:52:10.185Z,81.92
2018-06-04T07:53:19.474Z,82.49
2018-06-04T07:54:28.337Z,82.01
2018-06-04T07:55:37.255Z,82.34
2018-06-04T07:56:46.125Z,82.49
2018-06-04T07:57:54.990Z,82.3
2018-06-04T07:59:04.386Z,82.4
2018-06-04T08:00:13.531Z,82.2
2018-06-04T08:01:22.396Z,82.49
2018-06-04T08:02:31.541Z,81.92
2018-06-04T08:03:40.409Z,82.2
2018-06-04T08:04:49.322Z,81.92
2018-06-04T08:05:58.185Z,82.3
2018-06-04T08:07:07.048Z,82.15
2018-06-04T08:08:15.915Z,82.24
2018-06-04T08:09:25.063Z,82.43
2018-06-04T08:10:34.257Z,82.59
2018-06-04T08:11:43.121Z,82.49
2018-06-04T08:12:51.983Z,82.49
2018-06-04T08:14:01.130Z,82.43
2018-06-04T08:15:10.272Z,82.97
2018-06-04T08:16:19.468Z,82.68
2018-06-04T08:17:28.333Z,82.97
2018-06-04T08:18:37.197Z,82.97
2018-06-04T08:19:46.061Z,82.97
2018-06-04T08:20:54.926Z,82.49
2018-06-04T08:22:04.876Z,82.87
2018-06-04T08:23:13.741Z,82.68
2018-06-04T08:24:22.610Z,82.68
2018-06-04T08:25:31.474Z,82.43
2018-06-04T08:26:40.338Z,82.73
2018-06-04T08:27:49.208Z,82.43
2018-06-04T08:28:58.353Z,82.82
2018-06-04T08:30:07.220Z,82.34
2018-06-04T08:31:16.082Z,82.82
2018-06-04T08:32:24.945Z,83.11
2018-06-04T08:33:34.087Z,82.73
2018-06-04T08:34:42.951Z,83.01
2018-06-04T08:35:51.821Z,82.92
2018-06-04T08:37:00.958Z,83.01
2018-06-04T08:38:09.821Z,83.11
2018-06-04T08:39:18.935Z,83.01
2018-06-04T08:40:27.799Z,83.3
2018-06-04T08:41:36.942Z,83.11
2018-06-04T08:42:45.810Z,83.01
2018-06-04T08:43:54.956Z,82.82
2018-06-04T08:45:04.176Z,83.3
2018-06-04T08:46:13.312Z,83.4
2018-06-04T08:47:22.178Z,83.49
2018-06-04T08:48:31.043Z,83.69
2018-06-04T08:49:40.183Z,83.59
2018-06-04T08:50:49.682Z,83.78
2018-06-04T08:51:58.544Z,83.87
2018-06-04T08:53:07.409Z,83.78
2018-06-04T08:54:16.279Z,83.87
2018-06-04T08:55:25.415Z,83.97
2018-06-04T08:56:34.712Z,84.17
2018-06-04T08:57:43.580Z,83.49
2018-06-04T08:58:52.722Z,84.3
2018-06-04T09:00:01.874Z,84.17
2018-06-04T09:01:11.015Z,84.64
2018-06-04T09:02:20.031Z,84.74
2018-06-04T09:03:29.172Z,84.07
2018-06-04T09:04:38.313Z,84.3
2018-06-04T09:05:47.177Z,84.11
2018-06-04T09:06:56.041Z,84.11
2018-06-04T09:08:04.908Z,84.36
2018-06-04T09:09:13.775Z,84.21
2018-06-04T09:10:22.921Z,84.69
2018-06-04T09:11:31.786Z,84.69
2018-06-04T09:12:40.929Z,84.69
2018-06-04T09:13:50.078Z,84.5
2018-06-04T09:14:59.227Z,84.69
2018-06-04T09:16:08.091Z,84.21
2018-06-04T09:17:16.954Z,84.11
2018-06-04T09:18:25.820Z,84.69
2018-06-04T09:19:35.037Z,84.59
2018-06-04T09:20:43.900Z,84.78
2018-06-04T09:21:52.769Z,84.44
2018-06-04T09:23:01.953Z,84.88
2018-06-04T09:24:10.820Z,84.73
2018-06-04T09:25:19.781Z,84.06
2018-06-04T09:26:28.645Z,84.83
2018-06-04T09:27:37.509Z,84.92
2018-06-04T09:28:46.380Z,84.78
2018-06-04T09:29:55.239Z,84.98
2018-06-04T09:31:04.444Z,85.27
2018-06-04T09:32:13.589Z,84.78
2018-06-04T09:33:22.739Z,84.88
2018-06-04T09:34:31.878Z,85.27
2018-06-04T09:35:40.742Z,85.36
2018-06-04T09:36:49.661Z,85.27
2018-06-04T09:37:58.524Z,85.07
2018-06-04T09:39:07.387Z,84.98
2018-06-04T09:40:16.541Z,84.98
2018-06-04T09:41:25.401Z,85.17
2018-06-04T09:42:34.314Z,85.46
2018-06-04T09:43:43.180Z,85.27
2018-06-04T09:44:52.063Z,84.98
2018-06-04T09:46:01.485Z,85.17
2018-06-04T09:47:10.348Z,85.17
2018-06-04T09:48:19.213Z,84.98
2018-06-04T09:49:28.076Z,85.17
2018-06-04T09:50:36.939Z,84.98
2018-06-04T09:51:45.803Z,85.17
2018-06-04T09:52:54.671Z,85.17
2018-06-04T09:54:03.929Z,84.69
2018-06-04T09:55:13.164Z,85.02
2018-06-04T09:56:22.307Z,85.21
2018-06-04T09:57:31.171Z,84.83
2018-06-04T09:58:40.035Z,85.21
2018-06-04T09:59:49.001Z,84.92
2018-06-04T10:00:57.864Z,84.83
2018-06-04T10:02:06.735Z,85.36
2018-06-04T10:03:15.596Z,84.92
2018-06-04T10:04:24.460Z,85.31
2018-06-04T10:05:33.326Z,85.21
2018-06-04T10:06:42.474Z,85.11
2018-06-04T10:07:51.337Z,85.4
2018-06-04T10:09:00.480Z,84.92
2018-06-04T10:10:09.626Z,85.31
2018-06-04T10:11:18.894Z,85.11
2018-06-04T10:12:27.764Z,85.21
2018-06-04T10:13:36.630Z,85.25
2018-06-04T10:14:45.497Z,85.5
2018-06-04T10:15:54.372Z,85.54
2018-06-04T10:17:03.283Z,85.5
2018-06-04T10:18:12.148Z,85.78
2018-06-04T10:19:21.023Z,85.78
2018-06-04T10:20:30.173Z,85.5
2018-06-04T10:21:39.039Z,85.74
2018-06-04T10:22:47.960Z,85.54
2018-06-04T10:23:57.383Z,85.16
2018-06-04T10:25:06.534Z,85.64
2018-06-04T10:26:15.397Z,85.16
2018-06-04T10:27:24.269Z,85.64
2018-06-04T10:28:33.231Z,85.25
2018-06-04T10:29:42.372Z,85.64
2018-06-04T10:30:51.238Z,85.64
2018-06-04T10:32:00.105Z,85.74
2018-06-04T10:33:08.975Z,85.74
2018-06-04T10:34:17.887Z,86.51
2018-06-04T10:35:27.032Z,86.22
2018-06-04T10:36:35.898Z,86.31
2018-06-04T10:37:44.763Z,86.41
2018-06-04T10:38:53.631Z,86.51
2018-06-04T10:40:02.498Z,86.22
2018-06-04T10:41:11.640Z,86.12
2018-06-04T10:42:20.506Z,86.6
2018-06-04T10:43:29.372Z,86.41
2018-06-04T10:44:38.233Z,86.69
2018-06-04T10:45:47.549Z,86.41
2018-06-04T10:46:56.415Z,86.02
2018-06-04T10:48:05.283Z,86.51
2018-06-04T10:49:14.148Z,86.31
2018-06-04T10:50:23.020Z,86.41
2018-06-04T10:51:32.237Z,86.41
2018-06-04T10:52:41.102Z,86.41
2018-06-04T10:53:50.572Z,86.51
2018-06-04T10:54:59.716Z,86.31
2018-06-04T10:56:08.606Z,86.41
2018-06-04T10:57:17.721Z,86.22
2018-06-04T10:58:26.586Z,86.02
2018-06-04T10:59:35.454Z,86.41
2018-06-04T11:00:44.363Z,86.79
2018-06-04T11:01:53.228Z,86.45
2018-06-04T11:03:02.612Z,86.69
2018-06-04T11:04:11.474Z,86.12
2018-06-04T11:05:20.340Z,86.41
2018-06-04T11:06:29.211Z,86.51
2018-06-04T11:07:38.070Z,86.41
2018-06-04T11:08:46.982Z,86.22
2018-06-04T11:09:55.938Z,86.69
2018-06-04T11:11:04.807Z,86.55
2018-06-04T11:12:13.672Z,86.26
2018-06-04T11:13:22.542Z,86.65
2018-06-04T11:14:31.733Z,86.16
2018-06-04T11:15:40.608Z,86.65
2018-06-04T11:16:49.469Z,86.16
2018-06-04T11:17:58.406Z,86.55
2018-06-04T11:19:07.830Z,86.26
2018-06-04T11:20:17.156Z,86.65
2018-06-04T11:21:26.014Z,86.26
2018-06-04T11:22:34.882Z,86.35
2018-06-04T11:23:43.751Z,86.45
2018-06-04T11:24:52.618Z,86.45
2018-06-04T11:26:01.942Z,86.55
2018-06-04T11:27:10.729Z,86.26
2018-06-04T11:28:19.881Z,86.69
2018-06-04T11:29:28.766Z,87.37
2018-06-04T11:30:37.921Z,87.37
2018-06-04T11:31:47.492Z,86.93
2018-06-04T11:32:56.358Z,86.26
2018-06-04T11:34:05.563Z,86.74
2018-06-04T11:35:14.431Z,86.83
2018-06-04T11:36:23.293Z,86.12
2018-06-04T11:37:32.313Z,87.08
2018-06-04T11:38:41.420Z,86.41
2018-06-04T11:39:50.840Z,87.37
2018-06-04T11:40:59.714Z,87.27
2018-06-04T11:42:08.590Z,87.32
2018-06-04T11:43:17.505Z,86.74
2018-06-04T11:44:26.396Z,86.55
2018-06-04T11:45:35.730Z,86.74
2018-06-04T11:46:44.598Z,86.16
2018-06-04T11:47:53.465Z,86.55
2018-06-04T11:49:02.432Z,86.26
2018-06-04T11:50:11.300Z,86.55
2018-06-04T11:51:20.167Z,86.55
2018-06-04T11:52:29.037Z,86.65
2018-06-04T11:53:37.901Z,87.41
2018-06-04T11:54:46.799Z,87.12
2018-06-04T11:55:55.666Z,86.35
2018-06-04T11:57:04.816Z,87.6
2018-06-04T11:58:13.681Z,86.74
2018-06-04T11:59:22.558Z,87.22
2018-06-04T12:00:31.424Z,87.41
2018-06-04T12:01:40.869Z,87.41
2018-06-04T12:02:49.733Z,87.22
2018-06-04T12:03:58.883Z,86.74
2018-06-04T12:05:07.796Z,87.22
2018-06-04T12:06:17.521Z,86.26
2018-06-04T12:07:27.018Z,86.88
2018-06-04T12:08:36.260Z,86.88
2018-06-04T12:09:45.129Z,86.74
2018-06-04T12:10:53.998Z,86.35
2018-06-04T12:12:03.214Z,86.59
2018-06-04T12:13:12.084Z,86.49
2018-06-04T12:14:21.365Z,86.3
2018-06-04T12:15:30.231Z,86.11
2018-06-04T12:16:39.370Z,86.01
2018-06-04T12:17:48.685Z,85.96
2018-06-04T12:18:57.553Z,85.86
2018-06-04T12:20:06.416Z,85.77
2018-06-04T12:21:15.324Z,85.86
2018-06-04T12:22:24.255Z,86.63
2018-06-04T12:23:33.217Z,85.86
2018-06-04T12:24:42.205Z,86.73
2018-06-04T12:25:51.720Z,86.73
2018-06-04T12:27:00.676Z,86.25
2018-06-04T12:28:09.584Z,86.54
2018-06-04T12:29:18.962Z,87.6
2018-06-04T12:30:28.113Z,87.4
2018-06-04T12:31:36.983Z,86.44
2018-06-04T12:32:45.843Z,86.82
2018-06-04T12:33:54.736Z,87.46
2018-06-04T12:35:03.872Z,87.5
2018-06-04T12:36:13.018Z,87.5
2018-06-04T12:37:21.898Z,87.4
2018-06-04T12:38:30.769Z,87.5
2018-06-04T12:39:39.912Z,87.5
2018-06-04T12:40:48.931Z,87.4
2018-06-04T12:41:57.798Z,87.6
2018-06-04T12:43:07.222Z,87.5
2018-06-04T12:44:16.090Z,87.4
2018-06-04T12:45:24.956Z,87.74
2018-06-04T12:46:33.825Z,87.7
2018-06-04T12:47:42.693Z,88.17
2018-06-04T12:48:51.562Z,87.98
2018-06-04T12:50:00.429Z,87.98
2018-06-04T12:51:09.393Z,87.79
2018-06-04T12:52:18.308Z,88.27
2018-06-04T12:53:27.178Z,88.95
2018-06-04T12:54:36.049Z,88.75
2018-06-04T12:55:44.916Z,87.98
2018-06-04T12:56:53.785Z,87.79
2018-06-04T12:58:02.901Z,88.17
2018-06-04T12:59:11.765Z,87.79
2018-06-04T13:00:21.181Z,88.08
2018-06-04T13:01:30.046Z,87.74
2018-06-04T13:02:38.913Z,87.98
2018-06-04T13:03:48.057Z,88.85
2018-06-04T13:04:57.271Z,87.88
2018-06-04T13:06:06.066Z,87.98
2018-06-04T13:07:14.932Z,87.6
2018-06-04T13:08:23.796Z,87.98
2018-06-04T13:09:32.711Z,87.6
2018-06-04T13:10:41.577Z,87.5
2018-06-04T13:11:50.441Z,87.6
2018-06-04T13:12:59.307Z,87.4
2018-06-04T13:14:08.171Z,87.6
2018-06-04T13:15:17.365Z,87.6
2018-06-04T13:16:26.233Z,86.82
2018-06-04T13:17:35.099Z,87.5
2018-06-04T13:18:44.242Z,87.6
2018-06-04T13:19:53.118Z,87.6
2018-06-04T13:21:02.608Z,88.08
2018-06-04T13:22:11.475Z,87.7
2018-06-04T13:23:20.361Z,87.7
2018-06-04T13:24:29.506Z,88.08
2018-06-04T13:25:38.370Z,87.98
2018-06-04T13:26:47.286Z,88.95
2018-06-04T13:27:56.153Z,88.75
2018-06-04T13:29:05.021Z,88.65
2018-06-04T13:30:14.436Z,88.65
2018-06-04T13:31:23.578Z,88.85
2018-06-04T13:32:32.444Z,89.33
2018-06-04T13:33:41.714Z,89.14
2018-06-04T13:34:50.523Z,89.43
2018-06-04T13:35:59.391Z,88.65
2018-06-04T13:37:08.627Z,88.95
2018-06-04T13:38:17.644Z,88.75
2018-06-04T13:39:26.566Z,88.65
2018-06-04T13:40:35.721Z,88.56
2018-06-04T13:41:44.587Z,88.08
2018-06-04T13:42:53.453Z,89.04
2018-06-04T13:44:02.320Z,88.37
2018-06-04T13:45:11.237Z,88.65
2018-06-04T13:46:20.103Z,88.81
2018-06-04T13:47:29.252Z,88.32
2018-06-04T13:48:38.395Z,88.9
2018-06-04T13:49:47.412Z,88.61
2018-06-04T13:50:56.278Z,87.84
2018-06-04T13:52:05.424Z,88.51
2018-06-04T13:53:14.291Z,88.61
2018-06-04T13:54:23.160Z,88.32
2018-06-04T13:55:32.076Z,88.08
2018-06-04T13:56:40.940Z,88.17
2018-06-04T13:57:49.913Z,87.79
2018-06-04T13:58:58.890Z,88.46
2018-06-04T14:00:07.756Z,88.85
2018-06-04T14:01:16.671Z,88.95
2018-06-04T14:02:25.813Z,88.95
2018-06-04T14:03:34.682Z,88.37
2018-06-04T14:04:43.543Z,88.75
2018-06-04T14:05:52.409Z,89.53
2018-06-04T14:07:01.553Z,89.19
2018-06-04T14:08:10.419Z,89.43
2018-06-04T14:09:19.562Z,89.43
2018-06-04T14:10:28.432Z,89.23
2018-06-04T14:11:37.509Z,88.65
2018-06-04T14:12:46.652Z,89.04
2018-06-04T14:13:55.517Z,88.75
2018-06-04T14:15:04.381Z,88.75
2018-06-04T14:16:13.248Z,88.08
2018-06-04T14:17:22.111Z,87.98
2018-06-04T14:18:31.254Z,88.17
2018-06-04T14:19:40.119Z,87.93
2018-06-04T14:20:49.261Z,88.08
2018-06-04T14:21:58.328Z,88.02
2018-06-04T14:23:07.473Z,87.64
2018-06-04T14:24:16.400Z,87.74
2018-06-04T14:25:25.265Z,87.93
2018-06-04T14:26:34.520Z,87.74
2018-06-04T14:27:44.656Z,87.64
2018-06-04T14:28:54.179Z,87.74
2018-06-04T14:30:03.598Z,87.83
2018-06-04T14:31:12.466Z,87.64
2018-06-04T14:32:21.422Z,87.35
2018-06-04T14:33:30.853Z,87.45
2018-06-04T14:34:39.717Z,87.74
2018-06-04T14:35:48.876Z,87.35
2018-06-04T14:36:58.042Z,87.74
2018-06-04T14:38:07.061Z,87.7
2018-06-04T14:39:16.490Z,88.08
2018-06-04T14:40:25.357Z,88.95
2018-06-04T14:41:34.261Z,88.75
2018-06-04T14:42:43.221Z,88.85
2018-06-04T14:43:52.139Z,88.75
2018-06-04T14:45:01.094Z,88.75
2018-06-04T14:46:10.283Z,88.75
2018-06-04T14:47:19.153Z,89.53
2018-06-04T14:48:28.020Z,88.81
2018-06-04T14:49:36.930Z,89.19
2018-06-04T14:50:46.636Z,88.81
2018-06-04T14:51:55.513Z,89.43
2018-06-04T14:53:05.024Z,89.09